Kindersley Airport
CYKY : now visible

Airfield :











YOU CAN JOIN US ON...

 
LOGIN :

Register | Disclaimer

   EN    FR    IT 

 









Legend :    VFR   Marginal VFR   IFR   Intensive IFR   Very Intensive IFR
Visi :
Ceiling :
>= 8 km
>= 3000ft
5 to 8 km
1000 to 3000 ft
1500m to 5 km
500 to 1000 ft
800 to 1500m
200 to 500 ft
< 800m
< 200 ft
Symbols :   Thunderstorms  Fog  Heavy snow  Heavy precipitations  Wind > 20 kt







- Airport Elevation : 2277 ft
- IATA code : YKY


CYKY - Kindersley

CURRENT METAR :
  • 260400Z 29010KT 15SM FEW210 12/08 A2989 RMK CI2 SLP130 DENSITY ALT 2500FT

EXPIRED METARs :
  • 260300Z 29010KT 15SM FEW055 FEW110 SCT250 14/09 A2987 RMK CU1AC1CI2 AC TR CB ANVIL TOP VISB DIST SW SLP122 DENSITY ALT 2800FT
  • 260200Z 30011KT 15SM FEW055 FEW110 FEW250 18/08 A2984 RMK CU1AC1CI1 CU TR AC TR CI TR SLP109 DENSITY ALT 3200FT

TAF N/A
No reported NOTAMs for that airfield.



MET'MAP, your aeronautical weather chart ! - Copyright ORBIFLY December 2007 - Disclaimer

ORBIFLY MET'MAP TEAM :

Programming & Development : Alexandra Zaïnal
Concept & Development : Baudouin d'Aumeries
Co-Development & Prog : Marc-Olivier Méhu
Technical & hardware support : Manuel Goepfert

Contact : metmap@orbifly.com




SOURCES & CREDITS :

   NOAA       Earth
Advisory